嘉手納基地の過去48時間の天気

嘉手納基地 (Kadena ab)

現在時刻: 8/4 05:17 JST (8/3 20:17 UTC) 以下の時間は現地時間です。

過去48時間のMETAR気象情報
時間 風向 風速(m/s) 視程 気温(℃) 湿度(%) 気圧(hPa) 天気現象
4 04:56 南東 4 10km以上 28.3 87 1010.6
4 04:46 東南東 6 10km以上 28 89 1010.6
4 04:36 東南東 4 10km以上 28 89 1010.6
RODN 031956Z AUTO 13008KT 10SM SCT016 BKN022 28/26 A2983 RMK AO2 SLP106 T02830259 $
RODN 031946Z AUTO 12011KT 10SM SCT015 BKN021 28/26 A2983 RMK AO2 SLP106 $
RODN 031936Z AUTO 11007KT 9SM SCT013 BKN019 28/26 A2983 RMK AO2 CIG 012V019 SLP106 $